createdAt,value
2022-08-26T00:13:49.419Z,2.67
2022-08-26T00:28:51.599Z,3.28
2022-08-26T00:43:55.102Z,2.75
2022-08-26T00:59:01.287Z,2.60
2022-08-26T01:14:06.742Z,3.05
2022-08-26T01:29:17.333Z,2.40
2022-08-26T01:44:22.589Z,2.15
2022-08-26T01:59:25.048Z,1.98
2022-08-26T02:14:31.363Z,2.53
2022-08-26T02:29:40.635Z,2.22
2022-08-26T02:44:42.536Z,2.03
2022-08-26T02:59:46.064Z,1.70
2022-08-26T03:14:48.530Z,2.07
2022-08-26T03:45:15.512Z,1.80
2022-08-26T04:00:18.736Z,2.15
2022-08-26T04:15:21.977Z,2.15
2022-08-26T04:30:23.875Z,4.80
2022-08-26T04:45:27.367Z,5.63
2022-08-26T05:00:29.412Z,2.80
2022-08-26T05:15:31.349Z,2.07
2022-08-26T05:30:33.368Z,2.47
2022-08-26T05:45:45.898Z,2.00
2022-08-26T06:01:02.176Z,2.17
2022-08-26T06:16:07.897Z,2.30
2022-08-26T06:31:10.190Z,1.63
2022-08-26T06:46:15.071Z,2.30
2022-08-26T07:01:29.964Z,2.15
2022-08-26T07:16:34.235Z,2.28
2022-08-26T07:31:37.935Z,3.08
2022-08-26T07:46:52.179Z,2.60
2022-08-26T08:01:54.716Z,2.80
2022-08-26T08:16:58.203Z,2.38
2022-08-26T08:32:00.216Z,2.80
2022-08-26T08:47:13.359Z,3.45
2022-08-26T09:02:39.618Z,3.90
2022-08-26T09:18:01.598Z,3.42
2022-08-26T09:33:16.642Z,2.60
2022-08-26T10:03:39.985Z,1.80
2022-08-26T10:19:02.933Z,2.40
2022-08-26T10:34:08.597Z,2.53
2022-08-26T10:49:14.075Z,2.28
2022-08-26T11:04:35.166Z,2.70
2022-08-26T11:19:59.638Z,3.03
2022-08-26T11:35:08.029Z,2.38
2022-08-26T11:50:23.662Z,2.47
2022-08-26T12:05:36.957Z,2.85
2022-08-26T12:20:48.764Z,3.45
2022-08-26T12:35:56.299Z,2.05
2022-08-26T12:50:59.502Z,2.85
2022-08-26T13:06:31.722Z,3.13
2022-08-26T13:21:42.113Z,2.40
2022-08-26T13:36:44.994Z,2.00
2022-08-26T13:51:46.960Z,1.95
2022-08-26T14:06:49.127Z,2.05
2022-08-26T14:21:51.090Z,2.63
2022-08-26T14:36:53.003Z,2.72
2022-08-26T14:51:56.581Z,2.58
2022-08-26T15:06:59.925Z,3.22
2022-08-26T15:22:01.915Z,2.95
2022-08-26T15:37:04.597Z,3.22
2022-08-26T15:52:07.148Z,3.50
2022-08-26T16:07:09.210Z,4.05
2022-08-26T16:22:13.012Z,3.50
2022-08-26T16:37:15.029Z,3.35
2022-08-26T17:07:19.069Z,4.18
2022-08-26T17:37:22.760Z,5.85
2022-08-26T18:07:26.644Z,5.20
2022-08-26T18:22:28.712Z,6.75
2022-08-26T18:37:31.733Z,4.13
2022-08-26T18:52:33.769Z,3.83
2022-08-26T19:07:39.614Z,10.18
2022-08-26T19:22:41.612Z,8.77
2022-08-26T19:52:45.249Z,2.78
2022-08-26T20:22:49.735Z,1.70
2022-08-26T20:37:51.642Z,2.13
2022-08-26T21:07:58.295Z,2.20
2022-08-26T21:23:00.285Z,2.08
2022-08-26T21:53:04.334Z,2.08
2022-08-26T22:23:08.837Z,2.67
2022-08-26T22:38:11.236Z,2.42
2022-08-26T22:53:14.840Z,2.60
2022-08-26T23:08:17.310Z,2.60
2022-08-26T23:23:19.248Z,2.92
2022-08-26T23:38:21.180Z,3.70
2022-08-26T23:53:23.149Z,3.77
